Time;durP1;ratioP1;P1;durP2;ratioP2;P2;SDS_P1;SDS_P2;PMS_P1;PMS_P2;Temp;Humidity;BMP_temperature;BMP_pressure;BME280_temperature;BME280_humidity;BME280_pressure;Samples;Min_cycle;Max_cycle;Signal;HPM_P1;HPM_P2
2020/12/12 00:00:57;;;;;;;3.47;3.17;;;4.70;1.00;;;;;;5067625;28;20694;-72
2020/12/12 00:03:24;;;;;;;3.35;3.00;;;4.50;1.00;;;;;;5066313;28;20215;-73
2020/12/12 00:05:52;;;;;;;3.70;3.25;;;4.50;1.00;;;;;;5065079;28;20224;-76
2020/12/12 00:08:19;;;;;;;3.63;3.20;;;4.50;1.00;;;;;;5062831;28;20632;-74
2020/12/12 00:10:47;;;;;;;3.35;3.15;;;4.50;1.00;;;;;;5065934;28;20274;-72
2020/12/12 00:13:16;;;;;;;4.53;3.45;;;4.60;1.00;;;;;;5066356;28;20617;-73
2020/12/12 00:15:43;;;;;;;4.30;3.58;;;4.70;1.00;;;;;;5061626;28;20207;-73
2020/12/12 00:18:11;;;;;;;4.72;3.72;;;4.70;1.00;;;;;;5062176;28;20264;-76
2020/12/12 00:20:38;;;;;;;5.13;3.53;;;4.60;1.00;;;;;;5065287;28;20752;-74
2020/12/12 00:23:05;;;;;;;4.57;3.85;;;4.80;1.00;;;;;;5065455;28;20216;-74
2020/12/12 00:25:32;;;;;;;4.68;3.53;;;4.80;1.00;;;;;;5066117;28;20718;-74
2020/12/12 00:27:59;;;;;;;3.72;3.20;;;4.70;1.00;;;;;;5062629;28;20230;-74
2020/12/12 00:30:27;;;;;;;4.70;4.00;;;4.80;1.00;;;;;;5064009;28;20640;-75
2020/12/12 00:32:54;;;;;;;5.75;3.92;;;4.80;1.00;;;;;;5063363;28;20212;-74
2020/12/12 00:35:21;;;;;;;4.97;3.95;;;5.00;1.00;;;;;;5064342;28;20256;-74
2020/12/12 00:37:48;;;;;;;5.70;4.57;;;5.00;1.00;;;;;;5062992;28;20241;-75
2020/12/12 00:40:15;;;;;;;6.60;3.60;;;5.10;1.00;;;;;;5062259;28;20219;-75
2020/12/12 00:42:43;;;;;;;4.03;3.30;;;5.00;1.00;;;;;;5063449;28;20292;-75
2020/12/12 00:45:10;;;;;;;5.25;3.38;;;5.10;1.00;;;;;;5064368;28;20242;-75
2020/12/12 00:47:39;;;;;;;4.43;3.95;;;5.10;1.00;;;;;;5063001;28;20499;-75
2020/12/12 00:50:06;;;;;;;5.90;4.22;;;5.10;1.00;;;;;;5062320;28;20211;-74
2020/12/12 00:52:33;;;;;;;4.30;3.85;;;5.10;1.00;;;;;;5063112;28;20210;-75
2020/12/12 00:55:00;;;;;;;4.40;3.90;;;5.10;1.00;;;;;;5065569;28;20554;-76
2020/12/12 00:57:27;;;;;;;5.22;3.40;;;5.10;1.00;;;;;;5065402;28;20577;-75
2020/12/12 00:59:54;;;;;;;3.75;2.97;;;5.00;1.00;;;;;;5064290;28;20677;-74
2020/12/12 01:02:21;;;;;;;4.63;3.45;;;5.00;1.00;;;;;;5062017;28;20214;-75
2020/12/12 01:04:50;;;;;;;3.17;2.88;;;4.90;1.00;;;;;;5063994;28;20250;-76
2020/12/12 01:07:21;;;;;;;3.45;3.13;;;4.90;1.00;;;;;;5063420;28;20680;-76
2020/12/12 01:09:48;;;;;;;4.07;3.30;;;4.80;1.00;;;;;;5062972;28;20214;-76
2020/12/12 01:12:17;;;;;;;3.88;3.47;;;4.80;1.00;;;;;;5056667;28;20614;-75
2020/12/12 01:14:44;;;;;;;3.72;2.63;;;4.80;1.00;;;;;;5062064;28;20209;-75
2020/12/12 01:17:11;;;;;;;4.22;3.30;;;4.80;1.00;;;;;;5067252;28;20231;-75
2020/12/12 01:19:39;;;;;;;3.38;3.08;;;4.80;1.00;;;;;;5066040;28;20258;-76
2020/12/12 01:22:07;;;;;;;4.05;3.00;;;4.80;1.00;;;;;;5062365;28;20210;-75
2020/12/12 01:24:34;;;;;;;3.85;3.17;;;4.70;1.00;;;;;;5061024;28;20305;-77
2020/12/12 01:27:01;;;;;;;3.95;2.75;;;4.70;1.00;;;;;;5066673;28;20223;-75
2020/12/12 01:29:28;;;;;;;5.45;3.30;;;4.70;1.00;;;;;;5064445;28;20216;-76
2020/12/12 01:31:55;;;;;;;4.13;3.20;;;4.90;1.00;;;;;;5062825;28;20266;-76
2020/12/12 01:34:22;;;;;;;4.78;3.05;;;4.80;1.00;;;;;;5060729;28;20218;-76
2020/12/12 01:36:49;;;;;;;4.15;2.95;;;4.60;1.00;;;;;;5066840;28;20230;-77
2020/12/12 01:39:18;;;;;;;2.72;2.50;;;4.60;1.00;;;;;;5063322;28;20266;-77
2020/12/12 01:41:45;;;;;;;5.10;3.75;;;4.60;1.00;;;;;;5063308;28;20276;-74
2020/12/12 01:44:15;;;;;;;4.28;3.30;;;4.60;1.00;;;;;;5061616;28;20286;-75
2020/12/12 01:46:42;;;;;;;4.15;3.13;;;4.50;1.00;;;;;;5059478;28;20659;-75
2020/12/12 01:49:10;;;;;;;3.50;3.25;;;4.40;1.00;;;;;;5059544;28;20746;-75
2020/12/12 01:51:37;;;;;;;3.25;2.90;;;4.40;1.00;;;;;;5064271;28;20213;-74
2020/12/12 01:54:06;;;;;;;3.40;3.10;;;4.30;1.00;;;;;;5061422;28;21004;-75
2020/12/12 01:56:34;;;;;;;3.40;2.80;;;4.30;1.00;;;;;;5061694;28;20238;-73
2020/12/12 01:59:14;;;;;;;4.00;3.30;;;4.20;1.00;;;;;;5057544;28;20259;-75
2020/12/12 02:01:46;;;;;;;4.22;3.42;;;4.20;1.00;;;;;;5064343;28;20279;-77
2020/12/12 02:04:18;;;;;;;4.90;3.35;;;4.10;3.50;;;;;;5061867;28;20268;-73
2020/12/12 02:06:46;;;;;;;8.60;4.30;;;4.10;3.50;;;;;;5054631;28;20295;-74
2020/12/12 02:09:14;;;;;;;5.85;4.65;;;4.10;2.70;;;;;;5063438;28;20215;-74
2020/12/12 02:11:42;;;;;;;4.85;3.65;;;4.20;3.10;;;;;;5059016;28;20270;-74
2020/12/12 02:14:11;;;;;;;4.35;3.72;;;4.30;2.70;;;;;;5061934;28;20224;-74
2020/12/12 02:17:03;;;;;;;5.53;5.03;;;4.20;1.00;;;;;;5064952;28;21215;-74
2020/12/12 02:19:30;;;;;;;6.40;4.53;;;4.20;1.00;;;;;;5048472;28;20215;-74
2020/12/12 02:21:59;;;;;;;6.57;4.95;;;4.30;1.00;;;;;;5059553;28;20209;-74
2020/12/12 02:24:29;;;;;;;5.55;4.65;;;4.20;1.00;;;;;;5061264;28;20276;-74
2020/12/12 02:26:57;;;;;;;6.20;4.80;;;4.20;2.90;;;;;;5059099;28;20233;-74
2020/12/12 02:29:27;;;;;;;6.55;5.55;;;4.20;1.00;;;;;;5060209;28;20261;-73
2020/12/12 02:31:54;;;;;;;5.75;4.28;;;4.20;2.40;;;;;;5063199;28;20315;-74
2020/12/12 02:34:21;;;;;;;4.65;4.18;;;4.20;7.70;;;;;;5060931;28;20224;-74
2020/12/12 02:36:48;;;;;;;4.90;4.45;;;4.20;3.60;;;;;;5063075;28;20228;-74
2020/12/12 02:39:16;;;;;;;8.07;4.75;;;4.20;2.20;;;;;;5059219;28;20221;-74
2020/12/12 02:41:45;;;;;;;6.70;5.57;;;4.20;1.40;;;;;;5058567;28;20272;-74
2020/12/12 02:44:13;;;;;;;9.35;4.85;;;4.20;2.50;;;;;;5060336;28;20228;-74
2020/12/12 02:46:40;;;;;;;7.60;4.88;;;4.20;2.90;;;;;;5060598;28;20249;-75
2020/12/12 02:49:08;;;;;;;6.10;4.55;;;4.20;13.80;;;;;;5060871;28;20216;-72
2020/12/12 02:51:39;;;;;;;5.97;4.60;;;4.30;1.00;;;;;;5062803;28;20253;-73
2020/12/12 02:54:06;;;;;;;7.18;5.68;;;4.20;2.40;;;;;;5060345;28;20208;-73
2020/12/12 02:56:34;;;;;;;8.15;5.82;;;4.20;1.00;;;;;;5067556;28;20234;-73
2020/12/12 02:59:01;;;;;;;6.95;5.22;;;4.20;3.50;;;;;;5067832;28;20742;-75
2020/12/12 03:01:28;;;;;;;6.45;4.90;;;4.20;3.60;;;;;;5065871;28;20220;-75
2020/12/12 03:03:56;;;;;;;5.68;4.80;;;4.20;1.00;;;;;;5066192;28;20205;-75
2020/12/12 03:06:23;;;;;;;5.88;4.97;;;4.20;1.00;;;;;;5080937;28;20232;-74
2020/12/12 03:08:50;;;;;;;7.05;5.55;;;4.20;2.90;;;;;;5067986;28;20761;-72
2020/12/12 03:11:17;;;;;;;8.10;5.75;;;4.20;3.50;;;;;;5063632;28;20747;-73
2020/12/12 03:13:45;;;;;;;6.68;5.22;;;4.20;6.50;;;;;;5064203;28;20298;-73
2020/12/12 03:16:12;;;;;;;7.50;5.38;;;4.20;3.50;;;;;;5063391;28;20775;-73
2020/12/12 03:18:39;;;;;;;6.82;5.28;;;4.20;5.40;;;;;;5067895;28;20712;-73
2020/12/12 03:21:06;;;;;;;6.07;5.47;;;4.20;7.70;;;;;;5065751;28;20206;-72
2020/12/12 03:23:33;;;;;;;7.03;5.72;;;4.20;17.10;;;;;;5065601;28;20208;-74
2020/12/12 03:26:00;;;;;;;10.55;6.03;;;4.30;14.00;;;;;;5065295;28;20918;-74
2020/12/12 03:28:28;;;;;;;7.57;5.68;;;4.40;1.00;;;;;;5065201;28;20321;-74
2020/12/12 03:30:56;;;;;;;6.78;6.05;;;4.40;1.00;;;;;;5068038;28;20227;-74
2020/12/12 03:33:23;;;;;;;7.32;5.53;;;4.50;1.00;;;;;;5069701;28;20210;-74
2020/12/12 03:35:50;;;;;;;12.13;5.55;;;4.50;1.00;;;;;;5071221;28;20221;-76
2020/12/12 03:38:17;;;;;;;8.20;6.03;;;4.50;1.00;;;;;;5065339;28;20236;-75
2020/12/12 03:40:44;;;;;;;7.30;5.35;;;4.50;1.00;;;;;;5061703;28;20273;-74
2020/12/12 03:43:12;;;;;;;5.43;4.82;;;4.50;1.00;;;;;;5067694;28;20230;-75
2020/12/12 03:45:39;;;;;;;6.20;5.15;;;4.50;1.00;;;;;;5065970;28;20264;-74
2020/12/12 03:48:07;;;;;;;5.22;4.72;;;4.60;1.00;;;;;;5062104;28;20279;-75
2020/12/12 03:50:34;;;;;;;4.72;4.32;;;4.50;1.00;;;;;;5067045;28;20216;-74
2020/12/12 03:53:01;;;;;;;7.00;5.38;;;4.50;1.00;;;;;;5067875;28;20216;-74
2020/12/12 03:55:28;;;;;;;5.30;4.18;;;4.50;1.00;;;;;;5065121;28;20227;-75
2020/12/12 03:57:55;;;;;;;6.78;5.55;;;4.50;1.00;;;;;;5069048;28;20236;-74
2020/12/12 04:00:22;;;;;;;6.55;5.55;;;4.50;1.00;;;;;;5066959;28;20232;-74
2020/12/12 04:02:50;;;;;;;6.55;5.30;;;4.50;1.00;;;;;;5068065;28;20214;-74
2020/12/12 04:05:18;;;;;;;5.60;4.80;;;4.50;1.00;;;;;;5065851;28;20219;-74
2020/12/12 04:07:45;;;;;;;5.63;4.80;;;4.50;1.00;;;;;;5067082;28;20257;-73
2020/12/12 04:10:12;;;;;;;6.72;4.82;;;4.60;1.00;;;;;;5064196;28;20266;-75
2020/12/12 04:12:39;;;;;;;6.15;4.75;;;4.50;1.00;;;;;;5067491;28;20213;-74
2020/12/12 04:15:06;;;;;;;6.78;5.40;;;4.50;1.00;;;;;;5067192;28;20208;-72
2020/12/12 04:17:34;;;;;;;6.70;5.38;;;4.50;1.00;;;;;;5069866;28;20232;-74
2020/12/12 04:20:01;;;;;;;4.97;4.45;;;4.50;1.00;;;;;;5069581;28;20254;-75
2020/12/12 04:22:29;;;;;;;5.38;4.63;;;4.50;1.00;;;;;;5065596;28;20243;-75
2020/12/12 04:24:56;;;;;;;5.30;4.40;;;4.50;1.00;;;;;;5070081;28;20212;-74
2020/12/12 04:27:23;;;;;;;5.68;5.13;;;4.50;1.00;;;;;;5067232;28;20258;-74
2020/12/12 04:29:50;;;;;;;5.95;5.30;;;4.50;1.00;;;;;;5065078;28;20214;-73
2020/12/12 04:32:18;;;;;;;7.15;5.38;;;4.40;1.00;;;;;;5065806;28;20216;-72
2020/12/12 04:34:45;;;;;;;5.30;4.75;;;4.40;1.00;;;;;;5065754;28;20238;-74
2020/12/12 04:37:12;;;;;;;6.18;5.05;;;4.40;1.00;;;;;;5069683;28;20230;-75
2020/12/12 04:39:40;;;;;;;6.00;4.90;;;4.40;3.00;;;;;;5069554;28;20296;-73
2020/12/12 04:42:10;;;;;;;6.10;4.70;;;4.40;1.00;;;;;;5064274;28;20226;-73
2020/12/12 04:44:38;;;;;;;6.55;5.40;;;4.40;3.20;;;;;;5068785;28;20215;-74
2020/12/12 04:47:07;;;;;;;7.82;5.38;;;4.40;9.60;;;;;;5066607;28;20232;-73
2020/12/12 04:49:34;;;;;;;6.78;5.10;;;4.40;9.10;;;;;;5063600;28;20222;-73
2020/12/12 04:52:03;;;;;;;8.15;5.40;;;4.40;10.00;;;;;;5072717;28;20682;-75
2020/12/12 04:54:32;;;;;;;7.82;5.50;;;4.40;9.70;;;;;;5064675;28;20204;-73
2020/12/12 04:57:03;;;;;;;5.68;4.35;;;4.40;10.70;;;;;;5064744;28;20600;-73
2020/12/12 04:59:32;;;;;;;6.47;4.90;;;4.40;11.40;;;;;;5068208;28;20203;-73
2020/12/12 05:02:00;;;;;;;7.13;5.25;;;4.40;14.50;;;;;;5068584;28;20294;-74
2020/12/12 05:04:29;;;;;;;5.78;5.25;;;4.50;21.40;;;;;;5062572;28;20216;-73
2020/12/12 05:06:56;;;;;;;5.93;4.38;;;4.40;14.20;;;;;;5068353;28;20229;-74
2020/12/12 05:09:26;;;;;;;4.95;4.45;;;4.40;19.00;;;;;;5072918;28;20217;-74
2020/12/12 05:11:54;;;;;;;7.05;5.38;;;4.40;23.80;;;;;;5066399;28;20206;-74
2020/12/12 05:14:21;;;;;;;7.65;4.97;;;4.40;23.90;;;;;;5060827;28;20265;-73
2020/12/12 05:16:48;;;;;;;5.70;4.70;;;4.40;28.00;;;;;;5066014;28;20257;-73
2020/12/12 05:19:16;;;;;;;4.70;4.20;;;4.40;27.80;;;;;;5067040;28;20303;-75
2020/12/12 05:21:47;;;;;;;5.65;4.00;;;4.60;30.00;;;;;;5061500;28;20221;-75
2020/12/12 05:24:14;;;;;;;4.55;3.90;;;4.70;22.30;;;;;;5064806;28;20727;-71
2020/12/12 05:26:43;;;;;;;7.35;4.88;;;4.60;21.30;;;;;;5061024;28;20233;-74
2020/12/12 05:29:11;;;;;;;7.50;5.00;;;4.60;24.10;;;;;;5062350;28;20301;-73
2020/12/12 05:31:40;;;;;;;5.47;4.82;;;4.70;19.10;;;;;;5065857;28;20240;-74
2020/12/12 05:34:12;;;;;;;5.63;3.80;;;4.70;22.00;;;;;;5062538;28;20804;-73
2020/12/12 05:36:41;;;;;;;5.35;4.35;;;4.80;14.20;;;;;;5059868;28;20332;-73
2020/12/12 05:39:10;;;;;;;5.82;5.22;;;4.80;5.20;;;;;;5061467;28;20241;-73
2020/12/12 05:41:38;;;;;;;5.95;4.43;;;4.80;17.00;;;;;;5063777;28;20208;-74
2020/12/12 05:44:06;;;;;;;6.20;5.20;;;4.90;8.90;;;;;;5062726;28;20235;-74
2020/12/12 05:46:33;;;;;;;7.13;4.63;;;4.80;4.50;;;;;;5059467;28;20236;-76
2020/12/12 05:49:02;;;;;;;5.30;4.80;;;4.70;10.90;;;;;;5067139;28;20211;-75
2020/12/12 05:51:30;;;;;;;6.20;4.57;;;4.70;14.30;;;;;;5062451;28;20220;-77
2020/12/12 05:53:58;;;;;;;5.87;4.67;;;4.60;21.90;;;;;;5065473;28;21049;-76
2020/12/12 05:56:27;;;;;;;6.13;4.80;;;4.70;28.20;;;;;;5061602;28;20493;-76
2020/12/12 05:58:55;;;;;;;5.80;5.20;;;4.80;26.10;;;;;;5064945;28;20207;-75
2020/12/12 06:01:23;;;;;;;6.00;4.63;;;4.70;21.90;;;;;;5063642;28;20269;-74
2020/12/12 06:03:53;;;;;;;4.47;4.05;;;4.60;22.60;;;;;;5057158;28;20236;-75
2020/12/12 06:06:23;;;;;;;5.03;3.90;;;4.60;31.90;;;;;;5065125;28;20289;-76
2020/12/12 06:09:04;;;;;;;4.85;3.85;;;4.50;36.20;;;;;;5063021;28;20205;-75
2020/12/12 06:11:32;;;;;;;4.93;3.92;;;4.50;34.60;;;;;;5067044;28;20225;-76
2020/12/12 06:14:02;;;;;;;4.57;4.18;;;4.50;37.40;;;;;;5064704;28;20205;-75
2020/12/12 06:16:31;;;;;;;5.68;4.10;;;4.50;44.70;;;;;;5061850;28;20240;-73
2020/12/12 06:19:09;;;;;;;4.72;3.58;;;4.50;40.80;;;;;;5061939;28;20227;-71
2020/12/12 06:21:40;;;;;;;4.50;3.92;;;4.50;35.40;;;;;;5049257;28;20238;-75
2020/12/12 06:24:09;;;;;;;4.13;3.42;;;4.50;39.10;;;;;;5068011;28;20222;-74
2020/12/12 06:26:55;;;;;;;4.53;3.80;;;4.60;36.70;;;;;;5064006;28;20243;-76
2020/12/12 06:29:25;;;;;;;4.68;4.03;;;4.50;35.10;;;;;;5064481;28;20633;-74
2020/12/12 06:31:55;;;;;;;4.28;3.85;;;4.50;38.90;;;;;;5060616;28;20224;-73
2020/12/12 06:34:42;;;;;;;5.65;4.53;;;4.50;35.00;;;;;;5060764;28;20217;-74
2020/12/12 06:40:05;;;;;;;5.72;3.67;;;4.40;43.70;;;;;;5102499;27;20555;-73
2020/12/12 06:42:35;;;;;;;5.32;4.82;;;4.30;52.10;;;;;;5098062;28;20738;-73
2020/12/12 06:45:23;;;;;;;6.30;3.83;;;4.30;56.60;;;;;;5102335;28;20288;-73
2020/12/12 06:47:53;;;;;;;6.30;4.85;;;4.40;56.90;;;;;;5082294;28;20246;-73
2020/12/12 06:50:22;;;;;;;5.45;4.32;;;4.30;56.70;;;;;;5098998;28;20726;-72
2020/12/12 06:52:51;;;;;;;5.53;4.70;;;4.40;60.10;;;;;;5108559;28;20210;-73
2020/12/12 06:55:20;;;;;;;7.45;5.78;;;4.40;63.50;;;;;;5083215;28;20948;-72
2020/12/12 06:57:49;;;;;;;6.50;5.65;;;4.40;61.40;;;;;;5101623;28;20232;-71
2020/12/12 07:00:20;;;;;;;6.00;4.63;;;4.40;57.50;;;;;;5102894;28;20208;-72
2020/12/12 07:02:54;;;;;;;6.57;5.22;;;4.30;52.50;;;;;;5098209;28;20677;-70
2020/12/12 07:05:23;;;;;;;7.05;5.07;;;4.30;56.80;;;;;;5097071;28;20207;-71
2020/12/12 07:07:50;;;;;;;7.20;5.80;;;4.30;63.20;;;;;;5077014;28;20494;-71
2020/12/12 07:10:18;;;;;;;6.22;5.68;;;4.30;64.90;;;;;;5094012;28;20472;-74
2020/12/12 07:12:46;;;;;;;8.70;5.93;;;4.30;61.60;;;;;;5093372;28;20222;-71
2020/12/12 07:15:13;;;;;;;7.10;5.75;;;4.20;68.90;;;;;;5103258;28;20245;-70
2020/12/12 07:17:41;;;;;;;7.75;5.75;;;4.20;69.40;;;;;;5104746;28;20275;-71
2020/12/12 07:20:08;;;;;;;7.45;5.22;;;4.30;70.40;;;;;;5101676;28;20212;-72
2020/12/12 07:22:36;;;;;;;5.93;4.85;;;4.30;66.00;;;;;;5082454;28;20292;-72
2020/12/12 07:25:06;;;;;;;7.25;4.88;;;4.40;68.10;;;;;;5079453;28;20678;-70
2020/12/12 07:27:34;;;;;;;8.73;6.35;;;4.40;55.30;;;;;;5097635;28;20255;-70
2020/12/12 07:30:01;;;;;;;6.82;5.70;;;4.40;49.90;;;;;;5092510;28;20260;-71
2020/12/12 07:32:28;;;;;;;7.35;5.80;;;4.40;44.60;;;;;;5096230;28;20685;-70
2020/12/12 07:34:59;;;;;;;7.00;5.60;;;4.40;46.40;;;;;;5098287;28;20222;-71
2020/12/12 07:37:27;;;;;;;7.10;4.85;;;4.50;37.00;;;;;;5093162;28;20234;-71
2020/12/12 07:39:54;;;;;;;5.70;4.65;;;4.60;45.20;;;;;;5101924;28;20235;-70
2020/12/12 07:42:23;;;;;;;5.43;4.50;;;4.60;24.40;;;;;;5097752;28;20215;-71
2020/12/12 07:45:03;;;;;;;6.57;5.00;;;4.60;23.90;;;;;;5079631;28;20224;-70
2020/12/12 07:47:30;;;;;;;6.60;5.20;;;4.60;18.40;;;;;;5103155;28;20225;-70
2020/12/12 07:50:01;;;;;;;6.95;4.90;;;4.60;19.90;;;;;;5102128;28;20215;-70
2020/12/12 07:52:29;;;;;;;6.43;5.30;;;4.70;10.00;;;;;;5085053;28;20213;-69
2020/12/12 07:55:01;;;;;;;5.50;4.07;;;4.60;4.60;;;;;;5089832;28;20240;-69
2020/12/12 07:57:29;;;;;;;5.38;4.80;;;4.60;14.80;;;;;;5090678;28;20290;-71
2020/12/12 08:00:07;;;;;;;6.35;5.30;;;4.70;14.10;;;;;;5082274;28;20228;-70
2020/12/12 08:02:34;;;;;;;5.63;3.90;;;4.80;23.90;;;;;;5084825;28;20272;-71
2020/12/12 08:05:01;;;;;;;4.57;3.60;;;4.90;17.30;;;;;;5085940;28;20223;-70
2020/12/12 08:07:31;;;;;;;4.97;3.70;;;4.90;2.50;;;;;;5091799;28;20230;-70
2020/12/12 08:09:59;;;;;;;5.05;4.20;;;4.90;13.80;;;;;;5089347;28;20211;-68
2020/12/12 08:12:31;;;;;;;5.25;4.22;;;4.80;1.00;;;;;;5086114;28;20219;-72
2020/12/12 08:15:09;;;;;;;4.10;3.70;;;4.80;3.70;;;;;;5064080;28;21063;-70
2020/12/12 08:17:37;;;;;;;7.07;3.95;;;4.80;10.70;;;;;;5088678;28;20224;-71
2020/12/12 08:20:04;;;;;;;4.15;3.53;;;4.90;4.00;;;;;;5087067;28;20271;-70
2020/12/12 08:22:35;;;;;;;4.53;4.00;;;5.00;1.70;;;;;;5065532;28;20203;-70
2020/12/12 08:25:06;;;;;;;4.68;4.00;;;5.10;1.00;;;;;;5087982;28;20222;-69
2020/12/12 08:27:34;;;;;;;5.50;4.18;;;5.10;1.00;;;;;;5088337;28;20239;-72
2020/12/12 08:30:02;;;;;;;4.07;3.70;;;5.00;4.80;;;;;;5085951;28;20260;-71
2020/12/12 08:32:31;;;;;;;5.15;4.40;;;5.00;14.80;;;;;;5085882;28;20207;-69
2020/12/12 08:35:17;;;;;;;5.10;4.28;;;5.00;18.60;;;;;;5088507;28;20981;-70
2020/12/12 08:37:56;;;;;;;6.18;5.57;;;5.20;20.60;;;;;;5077714;28;20779;-70
2020/12/12 08:40:26;;;;;;;5.70;3.65;;;5.20;6.60;;;;;;5080374;28;21898;-71
2020/12/12 08:42:55;;;;;;;4.30;3.90;;;5.20;8.10;;;;;;5077309;28;20304;-72
2020/12/12 08:45:23;;;;;;;4.72;4.05;;;5.20;18.10;;;;;;5081906;28;21128;-72
2020/12/12 08:48:07;;;;;;;4.03;3.42;;;5.30;20.90;;;;;;5082366;28;20245;-71
2020/12/12 08:50:46;;;;;;;4.45;3.97;;;5.20;14.50;;;;;;5086122;28;20223;-73
2020/12/12 08:53:21;;;;;;;4.97;4.22;;;5.20;16.90;;;;;;5092119;28;20231;-72
2020/12/12 08:56:24;;;;;;;3.88;3.58;;;5.20;19.10;;;;;;5065421;28;21020;-72
2020/12/12 08:58:54;;;;;;;5.30;3.92;;;5.20;25.20;;;;;;5093021;28;20269;-71
2020/12/12 09:01:23;;;;;;;4.70;3.87;;;5.30;10.80;;;;;;5085472;28;20240;-72
2020/12/12 09:03:56;;;;;;;4.13;3.55;;;5.20;7.10;;;;;;5088413;28;20534;-71
2020/12/12 09:06:26;;;;;;;5.07;4.57;;;5.20;4.40;;;;;;5075926;28;21291;-73
2020/12/12 09:09:18;;;;;;;4.50;3.95;;;5.30;11.30;;;;;;5083124;28;20250;-72
2020/12/12 09:11:47;;;;;;;4.30;3.90;;;5.20;1.00;;;;;;5057452;28;20250;-72
2020/12/12 09:14:15;;;;;;;3.35;3.05;;;5.20;4.00;;;;;;5086244;28;20805;-70
2020/12/12 09:16:51;;;;;;;3.90;3.60;;;5.20;11.20;;;;;;5085649;28;20494;-71
2020/12/12 09:19:18;;;;;;;4.30;3.60;;;5.20;1.00;;;;;;5082642;28;20630;-71
2020/12/12 09:21:47;;;;;;;4.07;3.60;;;5.20;1.00;;;;;;5081048;28;20211;-72
2020/12/12 09:24:15;;;;;;;4.00;3.57;;;5.30;4.80;;;;;;5080135;28;20527;-72
2020/12/12 09:26:42;;;;;;;4.15;3.65;;;5.30;1.90;;;;;;5082527;28;20579;-72
2020/12/12 09:29:09;;;;;;;3.55;2.60;;;5.40;1.00;;;;;;5087475;28;20211;-73
2020/12/12 09:31:37;;;;;;;3.10;2.78;;;5.40;1.00;;;;;;5080632;28;20211;-71
2020/12/12 09:34:05;;;;;;;4.20;3.75;;;5.40;1.00;;;;;;5086694;28;20577;-72
2020/12/12 09:36:32;;;;;;;4.17;3.23;;;5.50;1.00;;;;;;5086220;28;20234;-72
2020/12/12 09:39:00;;;;;;;4.10;3.70;;;5.50;1.00;;;;;;5079786;28;20518;-72
2020/12/12 09:41:27;;;;;;;3.38;3.17;;;5.50;1.00;;;;;;5080779;28;20304;-71
2020/12/12 09:43:54;;;;;;;3.95;3.55;;;5.50;1.00;;;;;;5084531;28;20211;-73
2020/12/12 09:46:22;;;;;;;3.28;2.97;;;5.40;1.00;;;;;;5083120;28;20489;-71
2020/12/12 09:48:49;;;;;;;3.60;2.70;;;5.40;1.00;;;;;;5086269;28;20284;-72
2020/12/12 09:51:17;;;;;;;3.57;3.00;;;5.50;1.00;;;;;;5065783;28;20465;-72
2020/12/12 09:53:45;;;;;;;3.17;2.73;;;5.70;1.00;;;;;;5079617;28;20500;-72
2020/12/12 09:56:13;;;;;;;3.08;2.58;;;5.60;1.00;;;;;;5082388;28;21069;-71
2020/12/12 09:58:40;;;;;;;3.50;3.20;;;5.50;1.00;;;;;;5080053;28;20487;-72
2020/12/12 10:01:11;;;;;;;3.30;3.00;;;5.60;1.00;;;;;;5064433;28;20480;-71
2020/12/12 10:03:38;;;;;;;3.50;2.78;;;5.70;1.00;;;;;;5085636;28;20213;-71
2020/12/12 10:06:07;;;;;;;3.60;3.00;;;5.60;1.00;;;;;;5078019;28;20578;-71
2020/12/12 10:08:34;;;;;;;2.92;2.53;;;5.60;1.00;;;;;;5079237;28;20230;-72
2020/12/12 10:11:02;;;;;;;4.17;3.60;;;5.50;1.00;;;;;;5079149;28;20243;-71
2020/12/12 10:13:30;;;;;;;3.63;2.80;;;5.50;1.00;;;;;;5086308;28;20814;-70
2020/12/12 10:15:57;;;;;;;2.97;2.15;;;5.50;2.90;;;;;;5056096;28;20478;-71
2020/12/12 10:18:24;;;;;;;2.50;2.30;;;5.50;1.00;;;;;;5079523;28;20212;-71
2020/12/12 10:20:52;;;;;;;4.57;3.95;;;5.50;1.00;;;;;;5079915;28;20219;-72
2020/12/12 10:23:19;;;;;;;2.53;2.33;;;5.50;1.00;;;;;;5079776;28;20211;-70
2020/12/12 10:25:47;;;;;;;3.78;2.50;;;5.60;1.00;;;;;;5079345;28;20208;-71
2020/12/12 10:28:14;;;;;;;2.95;2.28;;;5.50;1.00;;;;;;5082517;28;20235;-71
2020/12/12 10:30:42;;;;;;;2.28;2.03;;;5.60;1.00;;;;;;5079824;28;20219;-70
2020/12/12 10:33:09;;;;;;;2.47;2.30;;;5.50;1.00;;;;;;5086497;28;20211;-71
2020/12/12 10:35:36;;;;;;;2.72;2.50;;;5.60;1.00;;;;;;5082688;28;20501;-71
2020/12/12 10:38:04;;;;;;;3.67;2.65;;;5.60;1.00;;;;;;5087020;28;20295;-71
2020/12/12 10:40:33;;;;;;;2.75;2.40;;;5.80;1.00;;;;;;5076363;28;20224;-72
2020/12/12 10:43:04;;;;;;;2.83;2.25;;;5.80;1.00;;;;;;5087684;28;20218;-70
2020/12/12 10:45:31;;;;;;;2.88;2.35;;;5.90;1.00;;;;;;5086496;28;20215;-71
2020/12/12 10:47:59;;;;;;;3.77;2.20;;;6.00;1.00;;;;;;5089922;28;20235;-71
2020/12/12 10:50:27;;;;;;;2.88;2.63;;;6.10;1.00;;;;;;5085766;28;20604;-71
2020/12/12 10:52:54;;;;;;;2.38;2.00;;;6.20;1.00;;;;;;5063076;28;20215;-70
2020/12/12 10:55:21;;;;;;;3.10;2.83;;;6.20;1.00;;;;;;5090125;28;20214;-70
2020/12/12 10:57:48;;;;;;;2.72;2.45;;;6.10;1.00;;;;;;5069144;28;20238;-70
2020/12/12 11:00:23;;;;;;;3.30;2.73;;;6.00;1.00;;;;;;5066838;28;20226;-71
2020/12/12 11:02:50;;;;;;;3.70;3.13;;;6.00;1.00;;;;;;5063729;28;21019;-70
2020/12/12 11:05:18;;;;;;;2.60;2.40;;;6.00;1.00;;;;;;5082022;28;20466;-71
2020/12/12 11:07:52;;;;;;;3.35;3.05;;;6.00;1.00;;;;;;5086718;28;20542;-72
2020/12/12 11:10:20;;;;;;;3.03;2.73;;;6.10;1.00;;;;;;5092302;28;20662;-72
2020/12/12 11:12:49;;;;;;;2.57;2.37;;;6.10;1.00;;;;;;5086886;28;20476;-71
2020/12/12 11:15:17;;;;;;;2.50;2.20;;;6.00;1.00;;;;;;5080402;28;20557;-70
2020/12/12 11:17:45;;;;;;;2.93;2.67;;;6.00;1.00;;;;;;5082240;28;20544;-70
2020/12/12 11:20:12;;;;;;;6.05;2.90;;;5.90;5.10;;;;;;5082453;28;20498;-71
2020/12/12 11:22:40;;;;;;;3.80;2.30;;;6.00;2.70;;;;;;5081241;28;20219;-69
2020/12/12 11:25:09;;;;;;;2.70;2.50;;;6.10;10.10;;;;;;5085000;28;20536;-69
2020/12/12 11:27:36;;;;;;;3.20;2.40;;;6.20;8.00;;;;;;5085137;28;20582;-72
2020/12/12 11:30:06;;;;;;;3.30;2.70;;;6.30;1.00;;;;;;5067350;28;20902;-68
2020/12/12 11:32:33;;;;;;;2.67;2.43;;;6.20;1.00;;;;;;5085963;28;20455;-69
2020/12/12 11:35:07;;;;;;;3.60;3.10;;;6.20;1.00;;;;;;5083354;28;20474;-70
2020/12/12 11:37:57;;;;;;;2.90;2.70;;;6.30;4.90;;;;;;5077938;28;21243;-70
2020/12/12 11:40:29;;;;;;;3.43;2.70;;;6.30;1.00;;;;;;5081729;28;20609;-67
2020/12/12 11:43:16;;;;;;;4.50;3.50;;;6.40;1.00;;;;;;5081276;28;20456;-69
2020/12/12 11:48:42;;;;;;;4.60;4.22;;;6.30;1.00;;;;;;5029342;28;20503;-69
2020/12/12 11:51:09;;;;;;;3.00;2.70;;;6.30;10.20;;;;;;5068171;28;20223;-68
2020/12/12 11:53:36;;;;;;;2.83;2.53;;;6.30;11.10;;;;;;5077794;28;21123;-68
2020/12/12 11:56:05;;;;;;;3.45;3.15;;;6.50;1.00;;;;;;5075836;28;20849;-69
2020/12/12 11:58:32;;;;;;;3.43;3.13;;;6.40;1.00;;;;;;5082123;28;20209;-68
2020/12/12 12:01:03;;;;;;;3.50;3.20;;;6.50;1.00;;;;;;5078287;28;20554;-68
2020/12/12 12:03:31;;;;;;;4.40;3.80;;;6.50;1.00;;;;;;5081439;28;21059;-69
2020/12/12 12:05:58;;;;;;;3.97;3.63;;;6.60;5.20;;;;;;5078595;28;20881;-68
2020/12/12 12:08:30;;;;;;;5.40;3.40;;;6.70;1.00;;;;;;5081258;28;20505;-69
2020/12/12 12:11:16;;;;;;;3.30;2.93;;;6.70;1.00;;;;;;5081309;28;20573;-67
2020/12/12 12:13:44;;;;;;;3.37;3.07;;;6.60;1.00;;;;;;5085948;28;21010;-68
2020/12/12 12:16:18;;;;;;;3.53;3.23;;;6.60;1.00;;;;;;5086471;28;20478;-68
2020/12/12 12:18:46;;;;;;;3.30;3.00;;;6.70;1.00;;;;;;5082484;28;20639;-68
2020/12/12 12:21:14;;;;;;;3.10;2.80;;;6.70;1.00;;;;;;5083855;28;20479;-68
2020/12/12 12:23:41;;;;;;;3.47;3.17;;;6.80;1.00;;;;;;5083379;28;20465;-69
2020/12/12 12:26:09;;;;;;;2.67;2.47;;;6.80;1.00;;;;;;5084832;28;20471;-70
2020/12/12 12:28:36;;;;;;;4.00;2.70;;;6.90;1.00;;;;;;5081524;28;22057;-68
2020/12/12 12:31:05;;;;;;;2.93;2.73;;;6.90;1.00;;;;;;5078705;28;20593;-69
2020/12/12 12:33:32;;;;;;;2.70;2.50;;;6.80;1.00;;;;;;5082896;28;20961;-69
2020/12/12 12:35:59;;;;;;;3.93;3.60;;;6.80;1.00;;;;;;5083575;28;20477;-71
2020/12/12 12:38:26;;;;;;;6.47;3.00;;;6.80;1.00;;;;;;5081066;28;20474;-68
2020/12/12 12:40:53;;;;;;;2.93;2.57;;;6.90;1.00;;;;;;5084825;28;20496;-68
2020/12/12 12:43:21;;;;;;;3.30;2.60;;;6.90;1.00;;;;;;5076772;28;20468;-68
2020/12/12 12:45:48;;;;;;;3.83;3.53;;;7.00;1.00;;;;;;5079577;28;20825;-69
2020/12/12 12:48:16;;;;;;;3.10;2.80;;;6.90;1.00;;;;;;5080425;28;20480;-68
2020/12/12 12:50:43;;;;;;;4.90;2.60;;;6.90;1.00;;;;;;5080944;28;20459;-69
2020/12/12 12:53:11;;;;;;;3.77;2.87;;;6.70;1.00;;;;;;5078313;28;20475;-69
2020/12/12 12:55:39;;;;;;;3.13;2.60;;;6.70;1.00;;;;;;5078194;28;20482;-69
2020/12/12 12:58:07;;;;;;;3.33;2.47;;;6.70;1.00;;;;;;5060266;28;21272;-68
2020/12/12 13:00:37;;;;;;;2.70;2.50;;;6.60;8.40;;;;;;5064582;28;20496;-69
2020/12/12 13:03:04;;;;;;;2.70;2.43;;;6.80;16.30;;;;;;5079670;28;20886;-69
2020/12/12 13:05:32;;;;;;;3.17;2.97;;;6.90;2.00;;;;;;5078220;28;21126;-69
2020/12/12 13:08:00;;;;;;;2.00;1.80;;;6.90;1.00;;;;;;5082935;28;20876;-69
2020/12/12 13:10:31;;;;;;;3.70;2.00;;;6.90;1.00;;;;;;5082343;28;20472;-68
2020/12/12 13:12:58;;;;;;;2.07;1.90;;;6.90;1.00;;;;;;5085406;28;20506;-71
2020/12/12 13:15:28;;;;;;;3.00;2.53;;;6.90;1.00;;;;;;5085450;28;20470;-69
2020/12/12 13:17:58;;;;;;;3.00;1.73;;;7.00;1.00;;;;;;5079517;28;20518;-69
2020/12/12 13:20:31;;;;;;;2.70;2.50;;;7.00;1.00;;;;;;5061853;28;20786;-70